createdAt,value
2022-09-28T00:00:19.175Z,9.46
2022-09-28T00:02:45.882Z,9.51
2022-09-28T00:05:12.738Z,9.45
2022-09-28T00:07:39.241Z,9.59
2022-09-28T00:10:05.927Z,9.55
2022-09-28T00:12:32.449Z,9.65
2022-09-28T00:14:58.969Z,9.67
2022-09-28T00:17:26.496Z,9.60
2022-09-28T00:19:52.952Z,9.67
2022-09-28T00:22:19.376Z,9.66
2022-09-28T00:24:45.924Z,9.78
2022-09-28T00:27:12.879Z,9.71
2022-09-28T00:29:39.259Z,9.67
2022-09-28T00:32:11.694Z,9.65
2022-09-28T00:34:45.718Z,9.78
2022-09-28T00:37:13.331Z,9.71
2022-09-28T00:39:41.380Z,9.61
2022-09-28T00:42:13.594Z,9.70
2022-09-28T00:44:42.631Z,9.63
2022-09-28T00:47:49.928Z,9.67
2022-09-28T00:50:32.290Z,9.74
2022-09-28T00:53:11.227Z,9.70
2022-09-28T00:55:41.844Z,9.56
2022-09-28T00:58:11.717Z,9.48
2022-09-28T01:00:40.817Z,9.52
2022-09-28T01:03:09.124Z,9.45
2022-09-28T01:05:36.984Z,9.46
2022-09-28T01:08:04.560Z,9.39
2022-09-28T01:10:31.545Z,9.46
2022-09-28T01:12:59.349Z,9.40
2022-09-28T01:15:28.322Z,9.36
2022-09-28T01:18:01.003Z,9.26
2022-09-28T01:20:34.238Z,9.10
2022-09-28T01:23:26.897Z,9.01
2022-09-28T01:26:12.448Z,8.96
2022-09-28T01:28:43.024Z,8.88
2022-09-28T01:31:14.576Z,8.80
2022-09-28T01:33:51.129Z,8.73
2022-09-28T01:36:21.342Z,8.73
2022-09-28T01:38:53.637Z,8.67
2022-09-28T01:41:22.421Z,8.64
2022-09-28T01:43:53.822Z,8.71
2022-09-28T01:46:22.733Z,8.60
2022-09-28T01:48:55.853Z,8.46
2022-09-28T01:51:32.402Z,8.37
2022-09-28T01:54:02.881Z,8.26
2022-09-28T01:56:39.384Z,8.18
2022-09-28T01:59:13.415Z,8.19
2022-09-28T02:01:43.693Z,8.07
2022-09-28T02:04:15.161Z,7.98
2022-09-28T02:06:52.715Z,8.03
2022-09-28T02:09:23.625Z,8.05
2022-09-28T02:11:54.916Z,8.10
2022-09-28T02:14:22.889Z,8.11
2022-09-28T02:16:51.859Z,8.11
2022-09-28T02:19:24.339Z,8.10
2022-09-28T02:22:00.865Z,8.14
2022-09-28T02:24:35.713Z,8.13
2022-09-28T02:27:10.227Z,8.13
2022-09-28T02:29:36.614Z,8.15
2022-09-28T02:32:03.105Z,8.19
2022-09-28T02:34:29.547Z,8.17
2022-09-28T02:36:56.146Z,8.17
2022-09-28T02:39:22.590Z,8.20
2022-09-28T02:41:59.351Z,8.13
2022-09-28T02:44:50.306Z,8.18
2022-09-28T02:47:36.390Z,8.12
2022-09-28T02:50:18.549Z,8.02
2022-09-28T02:53:13.878Z,8.08
2022-09-28T02:56:08.637Z,7.95
2022-09-28T02:58:52.562Z,7.83
2022-09-28T03:01:36.832Z,7.76
2022-09-28T03:04:17.279Z,7.64
2022-09-28T03:06:53.617Z,7.57
2022-09-28T03:09:28.271Z,7.53
2022-09-28T03:12:00.105Z,7.46
2022-09-28T03:14:26.924Z,7.39
2022-09-28T03:16:53.350Z,7.33
2022-09-28T03:19:24.303Z,7.22
2022-09-28T03:21:50.789Z,7.17
2022-09-28T03:24:17.477Z,7.13
2022-09-28T03:26:43.934Z,7.11
2022-09-28T03:29:10.394Z,7.06
2022-09-28T03:31:36.937Z,7.06
2022-09-28T03:34:03.608Z,7.07
2022-09-28T03:36:30.210Z,7.16
2022-09-28T03:38:56.744Z,7.23
2022-09-28T03:41:29.800Z,7.35
2022-09-28T03:43:56.269Z,7.46
2022-09-28T03:46:23.045Z,7.53
2022-09-28T03:48:49.452Z,7.61
2022-09-28T03:51:15.997Z,7.70
2022-09-28T03:53:42.573Z,7.76
2022-09-28T03:56:12.148Z,7.82
2022-09-28T03:58:38.658Z,7.86
2022-09-28T04:01:10.777Z,7.96
2022-09-28T04:03:39.657Z,8.01
2022-09-28T04:06:06.150Z,8.21
2022-09-28T04:08:32.599Z,8.20
2022-09-28T04:11:00.496Z,8.23
2022-09-28T04:13:28.083Z,8.29
2022-09-28T04:16:00.231Z,8.35
2022-09-28T04:18:27.132Z,8.37
2022-09-28T04:21:06.697Z,8.37
2022-09-28T04:23:38.723Z,8.47
2022-09-28T04:26:07.427Z,8.44
2022-09-28T04:28:52.768Z,8.45
2022-09-28T04:31:23.095Z,8.49
2022-09-28T04:33:49.699Z,8.51
2022-09-28T04:36:17.586Z,8.48
2022-09-28T04:38:59.356Z,8.43
2022-09-28T04:41:26.505Z,8.39
2022-09-28T04:43:52.914Z,8.41
2022-09-28T04:46:19.431Z,8.42
2022-09-28T04:48:46.094Z,8.35
2022-09-28T04:51:12.727Z,8.35
2022-09-28T04:53:39.289Z,8.34
2022-09-28T04:56:11.158Z,8.32
2022-09-28T04:58:38.000Z,8.28
2022-09-28T05:01:09.468Z,8.21
2022-09-28T05:03:35.885Z,8.23
2022-09-28T05:06:02.690Z,8.21
2022-09-28T05:08:34.797Z,8.29
2022-09-28T05:11:06.171Z,8.27
2022-09-28T05:13:36.985Z,8.23
2022-09-28T05:16:05.694Z,8.53
2022-09-28T05:18:32.306Z,8.49
2022-09-28T05:20:58.780Z,8.56
2022-09-28T05:23:25.152Z,8.54
2022-09-28T05:25:51.643Z,8.45
2022-09-28T05:28:26.642Z,8.37
2022-09-28T05:30:53.279Z,8.37
2022-09-28T05:33:19.795Z,8.35
2022-09-28T05:35:49.785Z,8.35
2022-09-28T05:38:19.012Z,8.44
2022-09-28T05:40:45.622Z,8.42
2022-09-28T05:43:12.183Z,8.48
2022-09-28T05:45:38.772Z,8.63
2022-09-28T05:48:05.237Z,8.70
2022-09-28T05:50:31.831Z,8.80
2022-09-28T05:53:00.247Z,8.94
2022-09-28T05:55:26.742Z,9.09
2022-09-28T05:57:53.217Z,9.15
2022-09-28T06:00:19.840Z,9.14
2022-09-28T06:02:58.578Z,9.24
2022-09-28T06:05:25.142Z,9.31
2022-09-28T06:07:52.146Z,9.30
2022-09-28T06:10:19.058Z,9.32
2022-09-28T06:12:47.821Z,9.39
2022-09-28T06:15:15.520Z,9.45
2022-09-28T06:17:43.757Z,9.36
2022-09-28T06:20:11.485Z,9.30
2022-09-28T06:22:38.698Z,9.35
2022-09-28T06:25:06.792Z,9.46
2022-09-28T06:27:34.408Z,9.51
2022-09-28T06:30:02.016Z,9.39
2022-09-28T06:32:29.707Z,9.38
2022-09-28T06:34:56.775Z,9.46
2022-09-28T06:37:23.292Z,9.52
2022-09-28T06:39:49.687Z,9.62
2022-09-28T06:42:18.697Z,9.82
2022-09-28T06:44:46.282Z,9.95
2022-09-28T06:47:12.735Z,10.08
2022-09-28T06:49:39.129Z,10.06
2022-09-28T06:52:06.067Z,10.24
2022-09-28T06:54:32.801Z,10.25
2022-09-28T06:56:59.218Z,10.25
2022-09-28T06:59:25.674Z,10.21
2022-09-28T07:01:52.150Z,10.19
2022-09-28T07:04:18.846Z,10.30
2022-09-28T07:06:48.414Z,10.29
2022-09-28T07:09:31.305Z,10.29
2022-09-28T07:11:59.285Z,10.42
2022-09-28T07:14:45.234Z,10.41
2022-09-28T07:17:14.408Z,10.52
2022-09-28T07:19:41.258Z,10.51
2022-09-28T07:22:07.883Z,10.61
2022-09-28T07:24:34.374Z,10.51
2022-09-28T07:27:01.921Z,10.52
2022-09-28T07:29:28.308Z,10.43
2022-09-28T07:31:54.746Z,10.48
2022-09-28T07:34:23.133Z,10.53
2022-09-28T07:36:49.544Z,10.53
2022-09-28T07:39:15.914Z,10.48
2022-09-28T07:41:43.065Z,10.42
2022-09-28T07:44:09.474Z,10.38
2022-09-28T07:46:37.031Z,10.24
2022-09-28T07:49:09.907Z,10.30
2022-09-28T07:51:38.725Z,10.18
2022-09-28T07:54:06.506Z,10.12
2022-09-28T07:56:34.856Z,10.12
2022-09-28T07:59:01.454Z,10.10
2022-09-28T08:01:28.091Z,10.08
2022-09-28T08:03:56.311Z,10.07
2022-09-28T08:06:23.248Z,10.01
2022-09-28T08:08:50.342Z,10.03
2022-09-28T08:11:18.721Z,10.06
2022-09-28T08:13:46.468Z,10.05
2022-09-28T08:16:13.232Z,10.11
2022-09-28T08:18:39.819Z,10.08
2022-09-28T08:21:25.234Z,10.21
2022-09-28T08:23:53.006Z,10.24
2022-09-28T08:26:19.865Z,10.25
2022-09-28T08:28:47.713Z,10.23
2022-09-28T08:31:14.536Z,10.26
2022-09-28T08:33:42.125Z,10.28
2022-09-28T08:36:09.890Z,10.14
2022-09-28T08:38:36.289Z,10.26
2022-09-28T08:41:11.895Z,10.19
2022-09-28T08:43:58.053Z,10.16
2022-09-28T08:46:29.556Z,10.13
2022-09-28T08:49:26.519Z,9.97
2022-09-28T08:52:03.701Z,10.00
2022-09-28T08:54:33.340Z,9.90
2022-09-28T08:57:15.132Z,9.84
2022-09-28T08:59:59.737Z,9.90
2022-09-28T09:02:34.341Z,9.89
2022-09-28T09:05:03.770Z,9.63
2022-09-28T09:08:01.293Z,9.45
2022-09-28T09:10:43.218Z,9.22
2022-09-28T09:13:48.271Z,9.03
2022-09-28T09:16:31.824Z,8.94
2022-09-28T09:19:26.331Z,8.98
2022-09-28T09:22:01.501Z,9.10
2022-09-28T09:24:34.065Z,9.25
2022-09-28T09:27:14.515Z,9.45
2022-09-28T09:29:50.242Z,9.61
2022-09-28T09:32:26.961Z,9.76
2022-09-28T09:35:26.074Z,9.82
2022-09-28T09:38:07.177Z,9.57
2022-09-28T09:40:58.437Z,9.36
2022-09-28T09:43:34.179Z,9.41
2022-09-28T09:46:41.547Z,9.33
2022-09-28T09:49:27.491Z,9.26
2022-09-28T09:52:10.410Z,9.24
2022-09-28T09:54:51.231Z,9.16
2022-09-28T09:57:21.637Z,9.12
2022-09-28T09:59:48.440Z,9.25
2022-09-28T10:02:23.803Z,9.22
2022-09-28T10:04:54.978Z,9.02
2022-09-28T10:07:30.640Z,9.07
2022-09-28T10:09:58.362Z,9.04
2022-09-28T10:12:25.316Z,9.07
2022-09-28T10:14:53.289Z,8.78
2022-09-28T10:17:26.702Z,8.65
2022-09-28T10:19:54.980Z,8.65
2022-09-28T10:22:24.199Z,8.59
2022-09-28T10:24:58.520Z,8.79
2022-09-28T10:27:31.184Z,8.98
2022-09-28T10:30:23.261Z,9.13
2022-09-28T10:32:52.474Z,9.28
2022-09-28T10:35:18.974Z,9.31
2022-09-28T10:38:04.652Z,9.29
2022-09-28T10:41:10.596Z,9.44
2022-09-28T10:43:39.095Z,9.45
2022-09-28T10:46:12.914Z,9.48
2022-09-28T10:48:52.374Z,9.51
2022-09-28T10:51:18.755Z,9.54
2022-09-28T10:54:02.034Z,9.66
2022-09-28T10:56:30.428Z,9.66
2022-09-28T10:58:57.966Z,9.76
2022-09-28T11:01:32.084Z,9.86
2022-09-28T11:04:03.654Z,9.79
2022-09-28T11:06:37.865Z,10.02
2022-09-28T11:09:07.634Z,9.79
2022-09-28T11:11:41.640Z,9.91
2022-09-28T11:14:22.718Z,9.90
2022-09-28T11:17:28.871Z,9.41
2022-09-28T11:20:27.404Z,9.43
2022-09-28T11:23:20.573Z,9.34
2022-09-28T11:26:05.962Z,9.48
2022-09-28T11:28:35.908Z,9.60
2022-09-28T11:31:03.542Z,9.82
2022-09-28T11:33:39.094Z,10.47
2022-09-28T11:36:14.844Z,11.09
2022-09-28T11:39:11.645Z,11.40
2022-09-28T11:41:57.191Z,11.34
2022-09-28T11:44:38.449Z,11.75
2022-09-28T11:47:31.859Z,11.68
2022-09-28T11:50:03.346Z,12.39
2022-09-28T11:52:57.714Z,12.83
2022-09-28T11:56:00.197Z,12.75
2022-09-28T11:58:32.918Z,12.24
2022-09-28T12:01:39.667Z,12.46
2022-09-28T12:04:14.315Z,12.49
2022-09-28T12:06:46.038Z,13.12
2022-09-28T12:09:18.193Z,12.69
2022-09-28T12:11:45.836Z,12.30
2022-09-28T12:14:23.462Z,11.88
2022-09-28T12:17:07.355Z,11.89
2022-09-28T12:20:13.200Z,11.70
2022-09-28T12:22:54.814Z,11.84
2022-09-28T12:25:23.174Z,11.70
2022-09-28T12:28:07.051Z,12.06
2022-09-28T12:30:36.105Z,12.68
2022-09-28T12:33:17.808Z,12.99
2022-09-28T12:36:22.870Z,12.89
2022-09-28T12:39:17.538Z,13.00
2022-09-28T12:41:57.614Z,13.64
2022-09-28T12:44:37.427Z,15.06
2022-09-28T12:47:28.937Z,15.85
2022-09-28T12:53:41.641Z,14.64
2022-09-28T12:56:31.363Z,13.82
2022-09-28T12:59:28.873Z,13.53
2022-09-28T13:02:17.851Z,13.27
2022-09-28T13:04:53.963Z,12.83
2022-09-28T13:07:32.696Z,12.26
2022-09-28T13:10:05.682Z,12.41
2022-09-28T13:12:56.134Z,12.95
2022-09-28T13:15:41.569Z,12.93
2022-09-28T13:18:21.763Z,13.45
2022-09-28T13:20:56.358Z,13.71
2022-09-28T13:23:29.513Z,13.76
2022-09-28T13:26:17.578Z,13.57
2022-09-28T13:28:46.959Z,13.23
2022-09-28T13:31:19.466Z,12.84
2022-09-28T13:33:46.844Z,12.20
2022-09-28T13:36:28.822Z,12.44
2022-09-28T13:38:56.840Z,12.57
2022-09-28T13:41:29.097Z,12.60
2022-09-28T13:44:11.042Z,12.52
2022-09-28T13:47:01.501Z,12.44
2022-09-28T13:49:51.410Z,12.49
2022-09-28T13:52:34.533Z,12.39
2022-09-28T13:55:19.087Z,12.28
2022-09-28T13:57:52.016Z,12.26
2022-09-28T14:00:29.344Z,12.00
2022-09-28T14:03:04.799Z,11.90
2022-09-28T14:05:53.250Z,12.23
2022-09-28T14:08:41.359Z,12.27
2022-09-28T14:14:13.841Z,12.26
2022-09-28T14:16:41.439Z,12.52
2022-09-28T14:22:52.585Z,11.95
2022-09-28T14:26:09.102Z,11.81
2022-09-28T14:29:09.313Z,11.58
2022-09-28T14:31:44.084Z,11.02
2022-09-28T14:34:25.047Z,11.04
2022-09-28T14:37:10.407Z,10.95
2022-09-28T14:39:56.425Z,11.23
2022-09-28T14:42:25.319Z,11.28
2022-09-28T14:45:06.768Z,11.38
2022-09-28T14:47:38.171Z,11.63
2022-09-28T14:50:25.842Z,12.19
2022-09-28T14:52:57.379Z,12.78
2022-09-28T14:55:28.172Z,13.14
2022-09-28T14:58:02.824Z,13.36
2022-09-28T15:00:31.770Z,13.21
2022-09-28T15:03:05.952Z,13.03
2022-09-28T15:05:44.047Z,12.79
2022-09-28T15:08:12.055Z,12.70
2022-09-28T15:10:42.576Z,12.81
2022-09-28T15:13:21.307Z,12.64
2022-09-28T15:15:50.705Z,12.78
2022-09-28T15:18:31.142Z,12.60
2022-09-28T15:21:02.020Z,12.31
2022-09-28T15:23:40.674Z,12.10
2022-09-28T15:26:18.519Z,12.22
2022-09-28T15:29:15.468Z,12.17
2022-09-28T15:31:42.430Z,12.26
2022-09-28T15:34:51.369Z,12.09
2022-09-28T15:37:29.381Z,12.25
2022-09-28T15:39:57.345Z,12.26
2022-09-28T15:42:24.003Z,12.26
2022-09-28T15:45:13.412Z,12.21
2022-09-28T15:47:44.855Z,11.97
2022-09-28T15:50:31.706Z,11.93
2022-09-28T15:53:01.117Z,11.94
2022-09-28T15:55:32.294Z,11.77
2022-09-28T15:58:18.650Z,11.81
2022-09-28T16:00:48.265Z,11.72
2022-09-28T16:03:17.643Z,11.57
2022-09-28T16:05:50.560Z,11.45
2022-09-28T16:08:35.791Z,11.44
2022-09-28T16:11:31.391Z,11.40
2022-09-28T16:14:17.560Z,11.42
2022-09-28T16:16:51.025Z,11.29
2022-09-28T16:19:26.075Z,11.20
2022-09-28T16:21:53.374Z,11.28
2022-09-28T16:24:32.103Z,11.16
2022-09-28T16:27:02.602Z,11.15
2022-09-28T16:29:35.740Z,11.14
2022-09-28T16:32:27.369Z,11.09
2022-09-28T16:35:17.727Z,10.93
2022-09-28T16:37:44.945Z,10.91
2022-09-28T16:40:12.421Z,10.93
2022-09-28T16:42:42.652Z,10.89
2022-09-28T16:45:19.823Z,10.79
2022-09-28T16:47:52.043Z,10.86
2022-09-28T16:50:20.922Z,10.87
2022-09-28T16:53:08.675Z,10.86
2022-09-28T16:55:40.465Z,10.88
2022-09-28T16:58:07.322Z,10.82
2022-09-28T17:00:33.981Z,10.72
2022-09-28T17:03:02.302Z,10.71
2022-09-28T17:05:30.207Z,10.65
2022-09-28T17:08:01.849Z,10.60
2022-09-28T17:10:55.740Z,10.62
2022-09-28T17:13:31.470Z,10.64
2022-09-28T17:15:58.427Z,10.59
2022-09-28T17:18:25.707Z,10.54
2022-09-28T17:20:55.898Z,10.50
2022-09-28T17:23:22.528Z,10.43
2022-09-28T17:25:49.001Z,10.49
2022-09-28T17:28:27.391Z,10.50
2022-09-28T17:30:54.428Z,10.51
2022-09-28T17:33:22.593Z,10.59
2022-09-28T17:36:00.119Z,10.61
2022-09-28T17:38:28.144Z,10.46
2022-09-28T17:40:54.687Z,10.38
2022-09-28T17:43:22.216Z,10.29
2022-09-28T17:45:48.869Z,10.33
2022-09-28T17:48:18.587Z,10.25
2022-09-28T17:50:47.341Z,10.21
2022-09-28T17:53:16.778Z,10.13
2022-09-28T17:55:44.438Z,10.02
2022-09-28T17:58:16.809Z,9.97
2022-09-28T18:00:46.586Z,9.95
2022-09-28T18:03:17.181Z,9.83
2022-09-28T18:05:49.692Z,9.70
2022-09-28T18:08:28.950Z,9.66
2022-09-28T18:10:56.889Z,9.55
2022-09-28T18:13:28.498Z,9.49
2022-09-28T18:15:58.604Z,9.48
2022-09-28T18:18:25.932Z,9.38
2022-09-28T18:20:56.210Z,9.32
2022-09-28T18:23:22.876Z,9.28
2022-09-28T18:25:50.045Z,9.10
2022-09-28T18:28:18.139Z,9.01
2022-09-28T18:30:45.638Z,8.98
2022-09-28T18:33:13.388Z,8.86
2022-09-28T18:35:43.534Z,8.81
2022-09-28T18:38:13.237Z,8.66
2022-09-28T18:40:39.882Z,8.56
2022-09-28T18:43:07.329Z,8.66
2022-09-28T18:45:34.755Z,8.64
2022-09-28T18:48:01.440Z,8.70
2022-09-28T18:50:28.369Z,8.72
2022-09-28T18:53:11.594Z,8.77
2022-09-28T18:55:42.480Z,8.82
2022-09-28T18:58:14.709Z,8.88
2022-09-28T19:00:43.550Z,9.00
2022-09-28T19:03:11.209Z,9.03
2022-09-28T19:05:42.628Z,9.03
2022-09-28T19:08:12.217Z,9.12
2022-09-28T19:10:38.707Z,9.02
2022-09-28T19:13:05.273Z,8.95
2022-09-28T19:15:33.030Z,8.91
2022-09-28T19:18:01.503Z,8.80
2022-09-28T19:20:27.932Z,8.73
2022-09-28T19:22:54.548Z,8.56
2022-09-28T19:25:21.056Z,8.46
2022-09-28T19:27:48.739Z,8.33
2022-09-28T19:30:15.415Z,8.17
2022-09-28T19:32:42.911Z,8.14
2022-09-28T19:35:14.619Z,8.14
2022-09-28T19:37:46.262Z,8.08
2022-09-28T19:40:15.740Z,7.98
2022-09-28T19:42:42.521Z,7.93
2022-09-28T19:45:10.947Z,7.86
2022-09-28T19:47:37.492Z,7.78
2022-09-28T19:50:05.851Z,7.69
2022-09-28T19:52:32.546Z,7.57
2022-09-28T19:55:00.230Z,7.52
2022-09-28T19:57:31.944Z,7.34
2022-09-28T20:00:02.779Z,7.37
2022-09-28T20:02:34.930Z,7.36
2022-09-28T20:05:02.272Z,7.23
2022-09-28T20:07:32.774Z,7.22
2022-09-28T20:10:00.646Z,7.33
2022-09-28T20:12:27.201Z,7.28
2022-09-28T20:14:54.271Z,7.27
2022-09-28T20:17:21.890Z,7.33
2022-09-28T20:19:51.749Z,7.22
2022-09-28T20:22:25.524Z,7.17
2022-09-28T20:24:52.673Z,7.10
2022-09-28T20:27:22.098Z,7.07
2022-09-28T20:29:53.812Z,7.00
2022-09-28T20:32:21.720Z,6.93
2022-09-28T20:34:48.347Z,6.82
2022-09-28T20:37:17.269Z,6.84
2022-09-28T20:39:45.074Z,6.76
2022-09-28T20:42:15.643Z,6.69
2022-09-28T20:44:43.061Z,6.66
2022-09-28T20:47:11.691Z,6.59
2022-09-28T20:49:38.122Z,6.50
2022-09-28T20:52:04.574Z,6.45
2022-09-28T20:54:31.010Z,6.39
2022-09-28T20:56:57.460Z,6.39
2022-09-28T20:59:26.432Z,6.33
2022-09-28T21:01:53.314Z,6.29
2022-09-28T21:04:19.978Z,6.28
2022-09-28T21:06:46.659Z,6.19
2022-09-28T21:09:13.360Z,6.16
2022-09-28T21:11:41.689Z,6.14
2022-09-28T21:14:10.242Z,6.08
2022-09-28T21:16:39.155Z,6.03
2022-09-28T21:19:05.866Z,6.03
2022-09-28T21:21:32.414Z,6.08
2022-09-28T21:23:59.271Z,6.09
2022-09-28T21:26:28.414Z,6.08
2022-09-28T21:29:04.837Z,6.03
2022-09-28T21:31:39.870Z,6.00
2022-09-28T21:34:12.357Z,5.92
2022-09-28T21:36:40.684Z,5.89
2022-09-28T21:39:10.204Z,5.84
2022-09-28T21:41:37.061Z,5.79
2022-09-28T21:44:03.643Z,5.82
2022-09-28T21:46:34.306Z,5.80
2022-09-28T21:49:01.559Z,5.75
2022-09-28T21:51:31.021Z,5.74
2022-09-28T21:53:57.556Z,5.72
2022-09-28T21:56:24.267Z,5.75
2022-09-28T21:58:51.192Z,5.68
2022-09-28T22:01:25.490Z,5.67
2022-09-28T22:03:55.733Z,5.63
2022-09-28T22:06:24.996Z,5.67
2022-09-28T22:08:53.714Z,5.67
2022-09-28T22:11:22.557Z,5.69
2022-09-28T22:13:51.592Z,5.63
2022-09-28T22:16:22.938Z,5.59
2022-09-28T22:18:50.101Z,5.53
2022-09-28T22:21:17.800Z,5.52
2022-09-28T22:23:44.855Z,5.47
2022-09-28T22:26:12.932Z,5.44
2022-09-28T22:28:44.656Z,5.41
2022-09-28T22:31:14.161Z,5.40
2022-09-28T22:33:40.741Z,5.42
2022-09-28T22:36:07.909Z,5.41
2022-09-28T22:38:40.113Z,5.42
2022-09-28T22:41:06.979Z,5.40
2022-09-28T22:43:34.713Z,5.43
2022-09-28T22:46:01.777Z,5.40
2022-09-28T22:48:33.040Z,5.39
2022-09-28T22:50:59.723Z,5.34
2022-09-28T22:53:26.348Z,5.33
2022-09-28T22:55:52.808Z,5.34
2022-09-28T22:58:19.388Z,5.31
2022-09-28T23:00:49.902Z,5.30
2022-09-28T23:03:17.962Z,5.32
2022-09-28T23:05:56.743Z,5.38
2022-09-28T23:08:24.067Z,5.33
2022-09-28T23:10:53.868Z,5.27
2022-09-28T23:13:20.328Z,5.27
2022-09-28T23:16:14.834Z,5.45
2022-09-28T23:18:42.414Z,5.56
2022-09-28T23:21:15.833Z,5.51
2022-09-28T23:23:43.883Z,5.61
2022-09-28T23:26:16.319Z,5.46
2022-09-28T23:28:44.516Z,5.42
2022-09-28T23:31:26.165Z,5.33
2022-09-28T23:33:57.379Z,5.38
2022-09-28T23:36:24.214Z,5.36
2022-09-28T23:38:50.749Z,5.31
2022-09-28T23:41:17.322Z,5.23
2022-09-28T23:43:45.053Z,5.20
2022-09-28T23:46:11.961Z,5.14
2022-09-28T23:48:38.898Z,5.04
2022-09-28T23:51:05.576Z,5.00
2022-09-28T23:53:35.029Z,4.98
2022-09-28T23:56:05.061Z,4.96
2022-09-28T23:58:31.537Z,4.97
